createdAt,value
2023-12-22T00:00:26.613Z,100.00
2023-12-22T00:05:29.778Z,100.00
2023-12-22T00:10:31.495Z,96.30
2023-12-22T00:15:33.120Z,97.33
2023-12-22T00:20:36.217Z,100.00
2023-12-22T00:25:37.884Z,100.00
2023-12-22T00:30:39.603Z,100.00
2023-12-22T00:35:42.624Z,100.00
2023-12-22T00:40:44.375Z,100.00
2023-12-22T00:45:46.080Z,100.00
2023-12-22T00:50:49.180Z,100.00
2023-12-22T00:55:50.991Z,100.00
2023-12-22T01:00:52.661Z,100.00
2023-12-22T01:05:55.999Z,100.00
2023-12-22T01:10:57.740Z,100.00
2023-12-22T01:15:59.423Z,100.00
2023-12-22T01:21:02.524Z,100.00
2023-12-22T01:26:04.245Z,100.00
2023-12-22T01:31:05.899Z,100.00
2023-12-22T01:36:09.052Z,100.00
2023-12-22T01:41:10.785Z,100.00
2023-12-22T01:46:13.588Z,100.00
2023-12-22T01:51:16.775Z,100.00
2023-12-22T01:56:18.448Z,100.00
2023-12-22T02:01:21.243Z,100.00
2023-12-22T02:06:24.910Z,100.00
2023-12-22T02:11:26.558Z,100.00
2023-12-22T02:16:37.943Z,100.00
2023-12-22T02:22:08.849Z,100.00
2023-12-22T02:27:29.440Z,100.00
2023-12-22T02:32:35.270Z,100.00
2023-12-22T02:37:39.644Z,100.00
2023-12-22T02:42:43.567Z,100.00
2023-12-22T02:47:45.644Z,100.00
2023-12-22T02:52:47.579Z,100.00
2023-12-22T02:57:51.164Z,100.00
2023-12-22T03:02:53.104Z,100.00
2023-12-22T03:07:55.056Z,100.00
2023-12-22T03:12:58.121Z,100.00
2023-12-22T03:17:59.818Z,100.00
2023-12-22T03:23:01.528Z,100.00
2023-12-22T03:28:05.194Z,100.00
2023-12-22T03:33:06.899Z,100.00
2023-12-22T03:38:08.690Z,100.00
2023-12-22T03:43:11.714Z,100.00
2023-12-22T03:48:14.329Z,100.00
2023-12-22T03:53:16.075Z,100.00
2023-12-22T03:58:19.637Z,100.00
2023-12-22T04:03:21.556Z,100.00
2023-12-22T04:08:23.428Z,100.00
2023-12-22T04:13:26.761Z,100.00
2023-12-22T04:18:28.441Z,100.00
2023-12-22T04:23:30.357Z,100.00
2023-12-22T04:28:33.418Z,100.00
2023-12-22T04:33:35.015Z,100.00
2023-12-22T04:38:36.484Z,100.00
2023-12-22T04:43:39.583Z,100.00
2023-12-22T04:48:41.434Z,100.00
2023-12-22T04:53:43.290Z,100.00
2023-12-22T04:58:46.526Z,100.00
2023-12-22T05:03:49.544Z,100.00
2023-12-22T05:08:51.391Z,100.00
2023-12-22T05:13:54.463Z,100.00
2023-12-22T05:18:56.049Z,100.00
2023-12-22T05:23:57.716Z,100.00
2023-12-22T05:29:01.073Z,100.00
2023-12-22T05:34:03.287Z,100.00
2023-12-22T05:39:04.951Z,100.00
2023-12-22T05:44:07.923Z,100.00
2023-12-22T05:49:09.758Z,100.00
2023-12-22T05:54:12.074Z,100.00
2023-12-22T05:59:15.164Z,100.00
2023-12-22T06:04:16.666Z,100.00
2023-12-22T06:09:18.414Z,100.00
2023-12-22T06:14:21.421Z,100.00
2023-12-22T06:19:23.308Z,99.68
2023-12-22T06:24:25.124Z,98.39
2023-12-22T06:29:30.130Z,95.78
2023-12-22T06:34:33.266Z,97.29
2023-12-22T06:39:34.957Z,96.83
2023-12-22T06:44:38.114Z,95.48
2023-12-22T06:49:39.925Z,95.96
2023-12-22T06:54:41.667Z,95.34
2023-12-22T06:59:46.028Z,95.39
2023-12-22T07:05:27.290Z,94.89
2023-12-22T07:10:30.023Z,97.11
2023-12-22T07:15:33.070Z,97.34
2023-12-22T07:20:35.142Z,97.64
2023-12-22T07:25:37.604Z,87.69
2023-12-22T07:30:40.643Z,89.87
2023-12-22T07:35:43.136Z,95.15
2023-12-22T07:40:46.203Z,96.49
2023-12-22T07:45:49.247Z,98.50
2023-12-22T07:50:51.867Z,100.00
2023-12-22T07:55:53.793Z,100.00
2023-12-22T08:00:56.950Z,100.00
2023-12-22T08:05:58.819Z,100.00
2023-12-22T08:11:01.113Z,100.00
2023-12-22T08:16:05.259Z,100.00
2023-12-22T08:21:14.621Z,100.00
2023-12-22T08:26:23.128Z,100.00
2023-12-22T08:31:26.254Z,100.00
2023-12-22T08:36:27.916Z,100.00
2023-12-22T08:41:29.633Z,100.00
2023-12-22T08:46:32.723Z,100.00
2023-12-22T08:51:34.739Z,100.00
2023-12-22T08:56:36.892Z,100.00
2023-12-22T09:01:39.968Z,100.00
2023-12-22T09:06:41.637Z,100.00
2023-12-22T09:11:43.326Z,100.00
2023-12-22T09:16:46.565Z,100.00
2023-12-22T09:21:48.209Z,100.00
2023-12-22T09:26:49.845Z,100.00
2023-12-22T09:31:53.011Z,100.00
2023-12-22T09:36:55.191Z,100.00
2023-12-22T09:41:57.076Z,100.00
2023-12-22T09:47:00.989Z,100.00
2023-12-22T09:52:03.217Z,100.00
2023-12-22T09:57:14.986Z,100.00
2023-12-22T10:02:28.480Z,100.00
2023-12-22T10:07:31.696Z,100.00
2023-12-22T10:12:35.190Z,100.00
2023-12-22T10:17:38.610Z,100.00
2023-12-22T10:22:40.333Z,100.00
2023-12-22T10:27:43.046Z,100.00
2023-12-22T10:32:46.089Z,100.00
2023-12-22T10:37:48.215Z,100.00
2023-12-22T10:42:50.458Z,100.00
2023-12-22T10:47:54.312Z,100.00
2023-12-22T10:52:56.312Z,100.00
2023-12-22T10:58:02.424Z,100.00
2023-12-22T11:03:09.017Z,100.00
2023-12-22T11:08:12.815Z,100.00
2023-12-22T11:13:17.171Z,100.00
2023-12-22T11:18:21.372Z,100.00
2023-12-22T11:23:24.770Z,100.00
2023-12-22T11:28:26.425Z,100.00
2023-12-22T11:33:30.585Z,100.00
2023-12-22T11:38:32.281Z,100.00
2023-12-22T11:43:36.134Z,100.00
2023-12-22T11:48:47.936Z,100.00
2023-12-22T11:53:49.718Z,100.00
2023-12-22T11:58:53.509Z,100.00
2023-12-22T12:03:58.202Z,100.00
2023-12-22T12:09:01.436Z,100.00
2023-12-22T12:14:10.291Z,100.00
2023-12-22T12:19:13.452Z,100.00
2023-12-22T12:24:15.187Z,100.00
2023-12-22T12:29:17.735Z,100.00
2023-12-22T12:34:21.451Z,100.00
2023-12-22T12:39:25.026Z,100.00
2023-12-22T12:44:27.923Z,100.00
2023-12-22T12:49:31.133Z,100.00
2023-12-22T12:54:33.264Z,100.00
2023-12-22T12:59:35.018Z,100.00
2023-12-22T13:04:41.025Z,100.00
2023-12-22T13:09:42.797Z,100.00
2023-12-22T13:14:44.705Z,100.00
2023-12-22T13:19:47.981Z,100.00
2023-12-22T13:24:56.304Z,100.00
2023-12-22T13:29:57.936Z,100.00
2023-12-22T13:35:01.102Z,100.00
2023-12-22T13:40:08.695Z,100.00
2023-12-22T13:45:11.997Z,100.00
2023-12-22T13:50:18.347Z,100.00
2023-12-22T13:55:21.249Z,100.00
2023-12-22T14:00:25.967Z,100.00
2023-12-22T14:05:31.837Z,100.00
2023-12-22T14:10:36.232Z,100.00
2023-12-22T14:15:44.666Z,100.00
2023-12-22T14:20:48.741Z,100.00
2023-12-22T14:25:50.490Z,100.00
2023-12-22T14:30:52.231Z,100.00
2023-12-22T14:35:55.465Z,100.00
2023-12-22T14:40:57.126Z,100.00
2023-12-22T14:45:59.019Z,100.00
2023-12-22T14:51:02.164Z,100.00
2023-12-22T14:56:04.340Z,100.00
2023-12-22T15:01:06.029Z,100.00
2023-12-22T15:06:10.508Z,100.00
2023-12-22T15:11:13.343Z,100.00
2023-12-22T15:16:15.137Z,100.00
2023-12-22T15:21:21.860Z,100.00
2023-12-22T15:26:24.127Z,100.00
2023-12-22T15:31:26.057Z,100.00
2023-12-22T15:36:29.039Z,100.00
2023-12-22T15:41:30.792Z,100.00
2023-12-22T15:46:32.831Z,100.00
2023-12-22T15:51:35.875Z,100.00
2023-12-22T15:56:37.773Z,100.00
2023-12-22T16:01:43.726Z,100.00
2023-12-22T16:06:47.179Z,100.00
2023-12-22T16:11:48.860Z,100.00
2023-12-22T16:16:50.723Z,100.00
2023-12-22T16:21:53.747Z,100.00
2023-12-22T16:26:55.381Z,100.00
2023-12-22T16:31:57.056Z,100.00
2023-12-22T16:37:00.059Z,100.00
2023-12-22T16:42:01.860Z,100.00
2023-12-22T16:47:03.945Z,100.00
2023-12-22T16:52:08.339Z,100.00
2023-12-22T16:57:10.016Z,100.00
2023-12-22T17:02:27.575Z,100.00
2023-12-22T17:07:37.935Z,100.00
2023-12-22T17:12:41.189Z,100.00
2023-12-22T17:17:43.188Z,100.00
2023-12-22T17:22:46.590Z,100.00
2023-12-22T17:27:48.610Z,100.00
2023-12-22T17:32:50.753Z,100.00
2023-12-22T17:37:54.070Z,100.00
2023-12-22T17:42:55.831Z,100.00
2023-12-22T17:47:57.663Z,100.00
2023-12-22T17:53:00.832Z,100.00
2023-12-22T17:58:02.525Z,100.00
2023-12-22T18:03:04.815Z,100.00
2023-12-22T18:08:08.168Z,100.00
2023-12-22T18:13:09.844Z,100.00
2023-12-22T18:18:11.634Z,100.00
2023-12-22T18:23:14.873Z,100.00
2023-12-22T18:28:16.546Z,100.00
2023-12-22T18:33:18.344Z,100.00
2023-12-22T18:38:21.459Z,100.00
2023-12-22T18:43:23.150Z,100.00
2023-12-22T18:48:24.877Z,100.00
2023-12-22T18:53:27.952Z,100.00
2023-12-22T18:58:29.748Z,100.00
2023-12-22T19:03:31.619Z,100.00
2023-12-22T19:08:34.850Z,100.00
2023-12-22T19:13:36.980Z,100.00
2023-12-22T19:18:39.112Z,100.00
2023-12-22T19:23:42.421Z,100.00
2023-12-22T19:28:44.348Z,100.00
2023-12-22T19:33:46.145Z,100.00
2023-12-22T19:38:49.221Z,100.00
2023-12-22T19:43:50.891Z,100.00
2023-12-22T19:48:52.781Z,100.00
2023-12-22T19:53:55.831Z,99.67
2023-12-22T19:58:57.570Z,100.00
2023-12-22T20:03:59.558Z,97.77
2023-12-22T20:09:02.981Z,97.83
2023-12-22T20:14:04.719Z,98.24
2023-12-22T20:19:06.636Z,97.22
2023-12-22T20:24:09.836Z,97.64
2023-12-22T20:29:11.643Z,95.17
2023-12-22T20:34:13.391Z,93.55
2023-12-22T20:39:16.417Z,92.26
2023-12-22T20:44:18.123Z,91.07
2023-12-22T20:49:19.955Z,89.98
2023-12-22T20:54:23.105Z,88.72
2023-12-22T20:59:24.808Z,88.46
2023-12-22T21:04:26.525Z,91.25
2023-12-22T21:09:29.722Z,94.96
2023-12-22T21:14:31.361Z,96.82
2023-12-22T21:19:33.243Z,97.96
2023-12-22T21:24:36.299Z,97.11
2023-12-22T21:29:41.171Z,99.38
2023-12-22T21:34:42.878Z,99.99
2023-12-22T21:39:45.864Z,99.71
2023-12-22T21:44:47.608Z,97.80
2023-12-22T21:49:49.399Z,97.87
2023-12-22T21:54:52.451Z,100.00
2023-12-22T21:59:54.108Z,100.00
2023-12-22T22:04:55.803Z,99.87
2023-12-22T22:09:59.073Z,100.00
2023-12-22T22:15:01.009Z,100.00
2023-12-22T22:20:03.669Z,100.00
2023-12-22T22:25:07.324Z,100.00
2023-12-22T22:30:09.528Z,100.00
2023-12-22T22:35:11.279Z,100.00
2023-12-22T22:40:14.709Z,100.00
2023-12-22T22:45:16.463Z,100.00
2023-12-22T22:50:18.462Z,100.00
2023-12-22T22:55:21.537Z,100.00
2023-12-22T23:00:23.183Z,100.00
2023-12-22T23:05:25.019Z,100.00
2023-12-22T23:10:28.040Z,100.00
2023-12-22T23:15:29.720Z,100.00
2023-12-22T23:20:31.534Z,100.00
2023-12-22T23:25:34.820Z,100.00
2023-12-22T23:30:36.621Z,100.00
2023-12-22T23:35:38.296Z,100.00
2023-12-22T23:40:41.303Z,100.00
2023-12-22T23:45:42.961Z,100.00
2023-12-22T23:50:44.792Z,100.00
2023-12-22T23:55:47.844Z,100.00
